Terminal Aerodrome Forecast
Issued by NWS

Home | Current Version | Previous Version | Text Only | Print | Product List | Glossary Off
Versions: 1 2 3 4 5 6 7 8 9 10 11 12 13 14 15 16 17 18 19

148
FTUS43 KGRB 272320
TAFCWA
TAF
KCWA 272320Z 2800/2824 11011G16KT P6SM BKN070 OVC120
     FM280400 08009KT P6SM SCT050 OVC080
     FM281500 08012KT P6SM SCT050 OVC070
      AMD LTD TO CLD VIS AND WIND 2803/2811=

USA.gov is the U.S. government's official web portal to all federal, state and local government web resources and services.